sensor_id;sensor_type;location;lat;lon;timestamp;P1;durP1;ratioP1;P2;durP2;ratioP2
81209;SDS011;70685;52.496;13.420;2023-10-31T00:00:46;1.48;;;0.63;;
81209;SDS011;70685;52.496;13.420;2023-10-31T00:03:14;1.20;;;1.20;;
81209;SDS011;70685;52.496;13.420;2023-10-31T00:05:39;0.95;;;0.95;;
81209;SDS011;70685;52.496;13.420;2023-10-31T00:08:05;1.02;;;1.02;;
81209;SDS011;70685;52.496;13.420;2023-10-31T00:10:31;0.38;;;0.38;;
81209;SDS011;70685;52.496;13.420;2023-10-31T00:12:57;0.57;;;0.57;;
81209;SDS011;70685;52.496;13.420;2023-10-31T00:15:22;0.50;;;0.50;;
81209;SDS011;70685;52.496;13.420;2023-10-31T00:17:49;1.10;;;1.10;;
81209;SDS011;70685;52.496;13.420;2023-10-31T00:20:17;0.70;;;0.70;;
81209;SDS011;70685;52.496;13.420;2023-10-31T00:22:45;1.17;;;1.00;;
81209;SDS011;70685;52.496;13.420;2023-10-31T00:25:11;0.60;;;0.60;;
81209;SDS011;70685;52.496;13.420;2023-10-31T00:27:39;0.55;;;0.43;;
81209;SDS011;70685;52.496;13.420;2023-10-31T00:30:05;1.13;;;1.02;;
81209;SDS011;70685;52.496;13.420;2023-10-31T00:32:31;1.27;;;0.70;;
81209;SDS011;70685;52.496;13.420;2023-10-31T00:35:00;0.47;;;0.47;;
81209;SDS011;70685;52.496;13.420;2023-10-31T00:37:28;0.68;;;0.68;;
81209;SDS011;70685;52.496;13.420;2023-10-31T00:39:53;0.80;;;0.70;;
81209;SDS011;70685;52.496;13.420;2023-10-31T00:42:19;3.10;;;1.52;;
81209;SDS011;70685;52.496;13.420;2023-10-31T00:44:45;0.32;;;0.32;;
81209;SDS011;70685;52.496;13.420;2023-10-31T00:47:11;0.90;;;0.63;;
81209;SDS011;70685;52.496;13.420;2023-10-31T00:49:36;0.75;;;0.75;;
81209;SDS011;70685;52.496;13.420;2023-10-31T00:52:02;0.70;;;0.70;;
81209;SDS011;70685;52.496;13.420;2023-10-31T00:54:31;0.43;;;0.43;;
81209;SDS011;70685;52.496;13.420;2023-10-31T00:56:59;0.88;;;0.88;;
81209;SDS011;70685;52.496;13.420;2023-10-31T00:59:25;0.32;;;0.32;;
81209;SDS011;70685;52.496;13.420;2023-10-31T01:01:50;0.63;;;0.63;;
81209;SDS011;70685;52.496;13.420;2023-10-31T01:04:18;0.68;;;0.68;;
81209;SDS011;70685;52.496;13.420;2023-10-31T01:06:44;0.95;;;0.95;;
81209;SDS011;70685;52.496;13.420;2023-10-31T01:09:10;0.70;;;0.70;;
81209;SDS011;70685;52.496;13.420;2023-10-31T01:11:38;2.72;;;0.68;;
81209;SDS011;70685;52.496;13.420;2023-10-31T01:14:06;0.50;;;0.50;;
81209;SDS011;70685;52.496;13.420;2023-10-31T01:16:32;0.73;;;0.73;;
81209;SDS011;70685;52.496;13.420;2023-10-31T01:18:57;2.78;;;1.42;;
81209;SDS011;70685;52.496;13.420;2023-10-31T01:21:23;0.80;;;0.70;;
81209;SDS011;70685;52.496;13.420;2023-10-31T01:23:49;0.60;;;0.60;;
81209;SDS011;70685;52.496;13.420;2023-10-31T01:26:15;0.47;;;0.47;;
81209;SDS011;70685;52.496;13.420;2023-10-31T01:28:43;0.65;;;0.65;;
81209;SDS011;70685;52.496;13.420;2023-10-31T01:31:08;0.80;;;0.35;;
81209;SDS011;70685;52.496;13.420;2023-10-31T01:33:34;0.55;;;0.55;;
81209;SDS011;70685;52.496;13.420;2023-10-31T01:36:02;0.90;;;0.83;;
81209;SDS011;70685;52.496;13.420;2023-10-31T01:38:28;0.50;;;0.50;;
81209;SDS011;70685;52.496;13.420;2023-10-31T01:40:54;1.13;;;1.13;;
81209;SDS011;70685;52.496;13.420;2023-10-31T01:43:32;0.55;;;0.55;;
81209;SDS011;70685;52.496;13.420;2023-10-31T01:46:01;0.30;;;0.30;;
81209;SDS011;70685;52.496;13.420;2023-10-31T01:48:30;0.73;;;0.73;;
81209;SDS011;70685;52.496;13.420;2023-10-31T01:50:58;0.73;;;0.63;;
81209;SDS011;70685;52.496;13.420;2023-10-31T01:53:25;0.70;;;0.70;;
81209;SDS011;70685;52.496;13.420;2023-10-31T01:55:56;0.50;;;0.50;;
81209;SDS011;70685;52.496;13.420;2023-10-31T01:58:25;0.93;;;0.90;;
81209;SDS011;70685;52.496;13.420;2023-10-31T02:00:54;0.75;;;0.75;;
81209;SDS011;70685;52.496;13.420;2023-10-31T02:03:24;1.13;;;1.02;;
81209;SDS011;70685;52.496;13.420;2023-10-31T02:05:53;0.90;;;0.80;;
81209;SDS011;70685;52.496;13.420;2023-10-31T02:08:19;0.43;;;0.43;;
81209;SDS011;70685;52.496;13.420;2023-10-31T02:10:45;0.30;;;0.30;;
81209;SDS011;70685;52.496;13.420;2023-10-31T02:13:14;0.50;;;0.50;;
81209;SDS011;70685;52.496;13.420;2023-10-31T02:15:40;0.20;;;0.20;;
81209;SDS011;70685;52.496;13.420;2023-10-31T02:18:09;0.30;;;0.30;;
81209;SDS011;70685;52.496;13.420;2023-10-31T02:20:37;1.23;;;1.23;;
81209;SDS011;70685;52.496;13.420;2023-10-31T02:23:05;0.50;;;0.50;;
81209;SDS011;70685;52.496;13.420;2023-10-31T02:25:33;0.80;;;0.80;;
81209;SDS011;70685;52.496;13.420;2023-10-31T02:27:58;0.38;;;0.38;;
81209;SDS011;70685;52.496;13.420;2023-10-31T02:30:24;0.17;;;0.17;;
81209;SDS011;70685;52.496;13.420;2023-10-31T02:32:50;0.77;;;0.77;;
81209;SDS011;70685;52.496;13.420;2023-10-31T02:35:16;0.85;;;0.80;;
81209;SDS011;70685;52.496;13.420;2023-10-31T02:37:43;1.55;;;1.52;;
81209;SDS011;70685;52.496;13.420;2023-10-31T02:40:09;0.60;;;0.60;;
81209;SDS011;70685;52.496;13.420;2023-10-31T02:42:40;0.95;;;0.95;;
81209;SDS011;70685;52.496;13.420;2023-10-31T02:45:06;1.42;;;0.85;;
81209;SDS011;70685;52.496;13.420;2023-10-31T02:47:32;0.80;;;0.80;;
81209;SDS011;70685;52.496;13.420;2023-10-31T02:50:03;0.73;;;0.73;;
81209;SDS011;70685;52.496;13.420;2023-10-31T02:52:32;1.13;;;1.08;;
81209;SDS011;70685;52.496;13.420;2023-10-31T02:54:58;0.52;;;0.52;;
81209;SDS011;70685;52.496;13.420;2023-10-31T02:57:23;0.50;;;0.50;;
81209;SDS011;70685;52.496;13.420;2023-10-31T02:59:49;0.20;;;0.20;;
81209;SDS011;70685;52.496;13.420;2023-10-31T03:02:17;0.80;;;0.75;;
81209;SDS011;70685;52.496;13.420;2023-10-31T03:04:43;0.68;;;0.68;;
81209;SDS011;70685;52.496;13.420;2023-10-31T03:07:10;0.88;;;0.88;;
81209;SDS011;70685;52.496;13.420;2023-10-31T03:09:36;0.65;;;0.65;;
81209;SDS011;70685;52.496;13.420;2023-10-31T03:12:02;0.52;;;0.47;;
81209;SDS011;70685;52.496;13.420;2023-10-31T03:14:30;0.75;;;0.75;;
81209;SDS011;70685;52.496;13.420;2023-10-31T03:16:56;0.63;;;0.63;;
81209;SDS011;70685;52.496;13.420;2023-10-31T03:19:21;0.52;;;0.52;;
81209;SDS011;70685;52.496;13.420;2023-10-31T03:21:47;0.60;;;0.60;;
81209;SDS011;70685;52.496;13.420;2023-10-31T03:24:12;0.55;;;0.55;;
81209;SDS011;70685;52.496;13.420;2023-10-31T03:26:40;0.80;;;0.80;;
81209;SDS011;70685;52.496;13.420;2023-10-31T03:29:06;0.47;;;0.47;;
81209;SDS011;70685;52.496;13.420;2023-10-31T03:31:32;1.45;;;0.82;;
81209;SDS011;70685;52.496;13.420;2023-10-31T03:34:00;1.35;;;0.85;;
81209;SDS011;70685;52.496;13.420;2023-10-31T03:36:25;0.30;;;0.30;;
81209;SDS011;70685;52.496;13.420;2023-10-31T03:38:51;0.95;;;0.95;;
81209;SDS011;70685;52.496;13.420;2023-10-31T03:41:16;0.30;;;0.30;;
81209;SDS011;70685;52.496;13.420;2023-10-31T03:43:42;0.70;;;0.70;;
81209;SDS011;70685;52.496;13.420;2023-10-31T03:46:08;1.35;;;1.00;;
81209;SDS011;70685;52.496;13.420;2023-10-31T03:48:36;0.70;;;0.70;;
81209;SDS011;70685;52.496;13.420;2023-10-31T03:51:01;1.10;;;1.10;;
81209;SDS011;70685;52.496;13.420;2023-10-31T03:53:27;0.85;;;0.85;;
81209;SDS011;70685;52.496;13.420;2023-10-31T03:55:53;1.00;;;1.00;;
81209;SDS011;70685;52.496;13.420;2023-10-31T03:58:18;0.52;;;0.52;;
81209;SDS011;70685;52.496;13.420;2023-10-31T04:00:44;1.05;;;1.00;;
81209;SDS011;70685;52.496;13.420;2023-10-31T04:03:10;0.38;;;0.38;;
81209;SDS011;70685;52.496;13.420;2023-10-31T04:05:38;0.40;;;0.40;;
81209;SDS011;70685;52.496;13.420;2023-10-31T04:08:03;0.75;;;0.75;;
81209;SDS011;70685;52.496;13.420;2023-10-31T04:10:29;0.98;;;0.98;;
81209;SDS011;70685;52.496;13.420;2023-10-31T04:12:55;0.90;;;0.90;;
81209;SDS011;70685;52.496;13.420;2023-10-31T04:15:23;1.52;;;1.52;;
81209;SDS011;70685;52.496;13.420;2023-10-31T04:17:50;0.90;;;0.90;;
81209;SDS011;70685;52.496;13.420;2023-10-31T04:20:16;0.43;;;0.43;;
81209;SDS011;70685;52.496;13.420;2023-10-31T04:22:44;0.70;;;0.70;;
81209;SDS011;70685;52.496;13.420;2023-10-31T04:25:12;0.73;;;0.73;;
81209;SDS011;70685;52.496;13.420;2023-10-31T04:27:40;0.43;;;0.43;;
81209;SDS011;70685;52.496;13.420;2023-10-31T04:30:06;1.20;;;1.20;;
81209;SDS011;70685;52.496;13.420;2023-10-31T04:32:34;0.40;;;0.40;;
81209;SDS011;70685;52.496;13.420;2023-10-31T04:35:02;0.30;;;0.30;;
81209;SDS011;70685;52.496;13.420;2023-10-31T04:37:28;0.60;;;0.60;;
81209;SDS011;70685;52.496;13.420;2023-10-31T04:39:54;1.05;;;1.05;;
81209;SDS011;70685;52.496;13.420;2023-10-31T04:42:20;0.70;;;0.70;;
81209;SDS011;70685;52.496;13.420;2023-10-31T04:44:48;0.60;;;0.60;;
81209;SDS011;70685;52.496;13.420;2023-10-31T04:47:13;0.88;;;0.88;;
81209;SDS011;70685;52.496;13.420;2023-10-31T04:49:41;0.43;;;0.43;;
81209;SDS011;70685;52.496;13.420;2023-10-31T04:52:07;4.13;;;1.27;;
81209;SDS011;70685;52.496;13.420;2023-10-31T04:54:32;1.45;;;1.35;;
81209;SDS011;70685;52.496;13.420;2023-10-31T04:56:59;0.82;;;0.82;;
81209;SDS011;70685;52.496;13.420;2023-10-31T04:59:24;0.88;;;0.88;;
81209;SDS011;70685;52.496;13.420;2023-10-31T05:01:50;0.68;;;0.68;;
81209;SDS011;70685;52.496;13.420;2023-10-31T05:04:17;1.02;;;1.02;;
81209;SDS011;70685;52.496;13.420;2023-10-31T05:06:43;2.45;;;1.40;;
81209;SDS011;70685;52.496;13.420;2023-10-31T05:09:11;0.88;;;0.60;;
81209;SDS011;70685;52.496;13.420;2023-10-31T05:11:43;0.65;;;0.65;;
81209;SDS011;70685;52.496;13.420;2023-10-31T05:14:09;1.27;;;0.95;;
81209;SDS011;70685;52.496;13.420;2023-10-31T05:16:41;0.82;;;0.82;;
81209;SDS011;70685;52.496;13.420;2023-10-31T05:19:11;2.30;;;1.42;;
81209;SDS011;70685;52.496;13.420;2023-10-31T05:21:39;0.70;;;0.70;;
81209;SDS011;70685;52.496;13.420;2023-10-31T05:24:05;0.93;;;0.88;;
81209;SDS011;70685;52.496;13.420;2023-10-31T05:26:31;0.68;;;0.68;;
81209;SDS011;70685;52.496;13.420;2023-10-31T05:28:57;1.13;;;1.13;;
81209;SDS011;70685;52.496;13.420;2023-10-31T05:31:25;0.52;;;0.52;;
81209;SDS011;70685;52.496;13.420;2023-10-31T05:33:53;0.90;;;0.90;;
81209;SDS011;70685;52.496;13.420;2023-10-31T05:36:22;0.65;;;0.65;;
81209;SDS011;70685;52.496;13.420;2023-10-31T05:38:53;0.73;;;0.73;;
81209;SDS011;70685;52.496;13.420;2023-10-31T05:41:18;0.65;;;0.65;;
81209;SDS011;70685;52.496;13.420;2023-10-31T05:43:44;0.80;;;0.80;;
81209;SDS011;70685;52.496;13.420;2023-10-31T05:46:15;0.82;;;0.82;;
81209;SDS011;70685;52.496;13.420;2023-10-31T05:48:41;2.53;;;0.82;;
81209;SDS011;70685;52.496;13.420;2023-10-31T05:51:15;0.28;;;0.28;;
81209;SDS011;70685;52.496;13.420;2023-10-31T05:53:45;0.40;;;0.40;;
81209;SDS011;70685;52.496;13.420;2023-10-31T05:56:15;0.47;;;0.47;;
81209;SDS011;70685;52.496;13.420;2023-10-31T05:58:43;0.70;;;0.70;;
81209;SDS011;70685;52.496;13.420;2023-10-31T06:01:09;0.73;;;0.73;;
81209;SDS011;70685;52.496;13.420;2023-10-31T06:03:35;0.60;;;0.60;;
81209;SDS011;70685;52.496;13.420;2023-10-31T06:06:01;0.45;;;0.45;;
81209;SDS011;70685;52.496;13.420;2023-10-31T06:08:27;1.00;;;1.00;;
81209;SDS011;70685;52.496;13.420;2023-10-31T06:10:54;0.50;;;0.50;;
81209;SDS011;70685;52.496;13.420;2023-10-31T06:13:25;1.17;;;1.08;;
81209;SDS011;70685;52.496;13.420;2023-10-31T06:15:52;0.68;;;0.68;;
81209;SDS011;70685;52.496;13.420;2023-10-31T06:18:19;0.32;;;0.32;;
81209;SDS011;70685;52.496;13.420;2023-10-31T06:20:46;0.45;;;0.45;;
81209;SDS011;70685;52.496;13.420;2023-10-31T06:23:12;1.05;;;1.05;;
81209;SDS011;70685;52.496;13.420;2023-10-31T06:25:40;0.75;;;0.75;;
81209;SDS011;70685;52.496;13.420;2023-10-31T06:28:06;0.77;;;0.77;;
81209;SDS011;70685;52.496;13.420;2023-10-31T06:30:31;0.30;;;0.30;;
81209;SDS011;70685;52.496;13.420;2023-10-31T06:32:57;0.30;;;0.30;;
81209;SDS011;70685;52.496;13.420;2023-10-31T06:35:24;0.63;;;0.63;;
81209;SDS011;70685;52.496;13.420;2023-10-31T06:37:54;0.55;;;0.55;;
81209;SDS011;70685;52.496;13.420;2023-10-31T06:40:21;0.50;;;0.50;;
81209;SDS011;70685;52.496;13.420;2023-10-31T06:42:48;0.50;;;0.50;;
81209;SDS011;70685;52.496;13.420;2023-10-31T06:45:14;0.40;;;0.40;;
81209;SDS011;70685;52.496;13.420;2023-10-31T06:47:39;0.40;;;0.40;;
81209;SDS011;70685;52.496;13.420;2023-10-31T06:50:07;0.32;;;0.32;;
81209;SDS011;70685;52.496;13.420;2023-10-31T06:52:33;0.80;;;0.80;;
81209;SDS011;70685;52.496;13.420;2023-10-31T06:54:58;0.60;;;0.60;;
81209;SDS011;70685;52.496;13.420;2023-10-31T06:57:24;0.50;;;0.50;;
81209;SDS011;70685;52.496;13.420;2023-10-31T06:59:50;0.30;;;0.30;;
81209;SDS011;70685;52.496;13.420;2023-10-31T07:02:15;0.38;;;0.38;;
81209;SDS011;70685;52.496;13.420;2023-10-31T07:04:41;0.40;;;0.40;;
81209;SDS011;70685;52.496;13.420;2023-10-31T07:07:06;1.10;;;1.10;;
81209;SDS011;70685;52.496;13.420;2023-10-31T07:09:32;1.00;;;0.52;;
81209;SDS011;70685;52.496;13.420;2023-10-31T07:12:00;0.10;;;0.10;;
81209;SDS011;70685;52.496;13.420;2023-10-31T07:14:25;0.38;;;0.38;;
81209;SDS011;70685;52.496;13.420;2023-10-31T07:16:51;0.60;;;0.60;;
81209;SDS011;70685;52.496;13.420;2023-10-31T07:19:17;1.15;;;0.65;;
81209;SDS011;70685;52.496;13.420;2023-10-31T07:21:42;1.10;;;1.10;;
81209;SDS011;70685;52.496;13.420;2023-10-31T07:24:08;0.35;;;0.35;;
81209;SDS011;70685;52.496;13.420;2023-10-31T07:26:37;0.15;;;0.15;;
81209;SDS011;70685;52.496;13.420;2023-10-31T07:29:05;0.50;;;0.50;;
81209;SDS011;70685;52.496;13.420;2023-10-31T07:31:30;0.40;;;0.40;;
81209;SDS011;70685;52.496;13.420;2023-10-31T07:33:58;0.45;;;0.45;;
81209;SDS011;70685;52.496;13.420;2023-10-31T07:36:27;0.43;;;0.43;;
81209;SDS011;70685;52.496;13.420;2023-10-31T07:38:53;2.88;;;0.20;;
81209;SDS011;70685;52.496;13.420;2023-10-31T07:41:18;0.47;;;0.47;;
81209;SDS011;70685;52.496;13.420;2023-10-31T07:43:48;0.43;;;0.43;;
81209;SDS011;70685;52.496;13.420;2023-10-31T07:46:16;0.70;;;0.40;;
81209;SDS011;70685;52.496;13.420;2023-10-31T07:48:47;0.25;;;0.25;;
81209;SDS011;70685;52.496;13.420;2023-10-31T07:51:12;0.47;;;0.47;;
81209;SDS011;70685;52.496;13.420;2023-10-31T07:53:38;0.32;;;0.30;;
81209;SDS011;70685;52.496;13.420;2023-10-31T07:56:03;0.08;;;0.08;;
81209;SDS011;70685;52.496;13.420;2023-10-31T07:58:29;0.30;;;0.30;;
81209;SDS011;70685;52.496;13.420;2023-10-31T08:00:55;0.30;;;0.30;;
81209;SDS011;70685;52.496;13.420;2023-10-31T08:03:21;0.22;;;0.22;;
81209;SDS011;70685;52.496;13.420;2023-10-31T08:05:46;0.20;;;0.20;;
81209;SDS011;70685;52.496;13.420;2023-10-31T08:08:12;0.20;;;0.20;;
81209;SDS011;70685;52.496;13.420;2023-10-31T08:10:38;0.13;;;0.13;;
81209;SDS011;70685;52.496;13.420;2023-10-31T08:13:04;0.10;;;0.10;;
81209;SDS011;70685;52.496;13.420;2023-10-31T08:15:29;0.30;;;0.30;;
81209;SDS011;70685;52.496;13.420;2023-10-31T08:17:55;0.28;;;0.28;;
81209;SDS011;70685;52.496;13.420;2023-10-31T08:20:23;0.00;;;0.00;;
81209;SDS011;70685;52.496;13.420;2023-10-31T08:22:51;0.10;;;0.10;;
81209;SDS011;70685;52.496;13.420;2023-10-31T08:25:19;0.20;;;0.20;;
81209;SDS011;70685;52.496;13.420;2023-10-31T08:27:45;0.00;;;0.00;;
81209;SDS011;70685;52.496;13.420;2023-10-31T08:30:11;0.20;;;0.20;;
81209;SDS011;70685;52.496;13.420;2023-10-31T08:32:37;0.08;;;0.05;;
81209;SDS011;70685;52.496;13.420;2023-10-31T08:35:03;0.03;;;0.03;;
81209;SDS011;70685;52.496;13.420;2023-10-31T08:37:31;0.00;;;0.00;;
81209;SDS011;70685;52.496;13.420;2023-10-31T08:39:56;0.00;;;0.00;;
81209;SDS011;70685;52.496;13.420;2023-10-31T08:42:22;0.10;;;0.10;;
81209;SDS011;70685;52.496;13.420;2023-10-31T08:44:50;0.10;;;0.10;;
81209;SDS011;70685;52.496;13.420;2023-10-31T08:47:15;0.38;;;0.20;;
81209;SDS011;70685;52.496;13.420;2023-10-31T08:49:43;0.08;;;0.08;;
81209;SDS011;70685;52.496;13.420;2023-10-31T08:52:10;0.38;;;0.38;;
81209;SDS011;70685;52.496;13.420;2023-10-31T08:54:39;0.10;;;0.10;;
81209;SDS011;70685;52.496;13.420;2023-10-31T08:57:04;0.20;;;0.20;;
81209;SDS011;70685;52.496;13.420;2023-10-31T08:59:30;0.10;;;0.10;;
81209;SDS011;70685;52.496;13.420;2023-10-31T09:01:58;0.00;;;0.00;;
81209;SDS011;70685;52.496;13.420;2023-10-31T09:04:26;0.00;;;0.00;;
81209;SDS011;70685;52.496;13.420;2023-10-31T09:06:54;0.05;;;0.05;;
81209;SDS011;70685;52.496;13.420;2023-10-31T09:09:20;0.00;;;0.00;;
81209;SDS011;70685;52.496;13.420;2023-10-31T09:11:50;0.00;;;0.00;;
81209;SDS011;70685;52.496;13.420;2023-10-31T09:14:16;0.10;;;0.10;;
81209;SDS011;70685;52.496;13.420;2023-10-31T09:16:41;0.00;;;0.00;;
81209;SDS011;70685;52.496;13.420;2023-10-31T09:19:09;0.00;;;0.00;;
81209;SDS011;70685;52.496;13.420;2023-10-31T09:21:38;0.03;;;0.03;;
81209;SDS011;70685;52.496;13.420;2023-10-31T09:24:03;0.17;;;0.17;;
81209;SDS011;70685;52.496;13.420;2023-10-31T09:26:29;0.10;;;0.10;;
81209;SDS011;70685;52.496;13.420;2023-10-31T09:28:58;0.10;;;0.10;;
81209;SDS011;70685;52.496;13.420;2023-10-31T09:31:25;0.10;;;0.10;;
81209;SDS011;70685;52.496;13.420;2023-10-31T09:33:53;0.08;;;0.08;;
81209;SDS011;70685;52.496;13.420;2023-10-31T09:36:19;0.00;;;0.00;;
81209;SDS011;70685;52.496;13.420;2023-10-31T09:38:45;0.00;;;0.00;;
81209;SDS011;70685;52.496;13.420;2023-10-31T09:41:12;0.65;;;0.10;;
81209;SDS011;70685;52.496;13.420;2023-10-31T09:43:39;0.13;;;0.13;;
81209;SDS011;70685;52.496;13.420;2023-10-31T09:46:05;0.20;;;0.20;;
81209;SDS011;70685;52.496;13.420;2023-10-31T09:48:34;0.10;;;0.10;;
81209;SDS011;70685;52.496;13.420;2023-10-31T09:51:00;0.08;;;0.08;;
81209;SDS011;70685;52.496;13.420;2023-10-31T09:53:27;0.10;;;0.10;;
81209;SDS011;70685;52.496;13.420;2023-10-31T09:55:59;0.20;;;0.20;;
81209;SDS011;70685;52.496;13.420;2023-10-31T09:58:27;0.13;;;0.13;;
81209;SDS011;70685;52.496;13.420;2023-10-31T10:00:53;0.00;;;0.00;;
81209;SDS011;70685;52.496;13.420;2023-10-31T10:03:18;0.10;;;0.10;;
81209;SDS011;70685;52.496;13.420;2023-10-31T10:05:44;0.00;;;0.00;;
81209;SDS011;70685;52.496;13.420;2023-10-31T10:08:11;0.00;;;0.00;;
81209;SDS011;70685;52.496;13.420;2023-10-31T10:10:39;0.10;;;0.10;;
81209;SDS011;70685;52.496;13.420;2023-10-31T10:13:05;0.10;;;0.10;;
81209;SDS011;70685;52.496;13.420;2023-10-31T10:15:42;0.10;;;0.10;;
81209;SDS011;70685;52.496;13.420;2023-10-31T10:18:25;0.10;;;0.10;;
81209;SDS011;70685;52.496;13.420;2023-10-31T10:21:00;0.30;;;0.30;;
81209;SDS011;70685;52.496;13.420;2023-10-31T10:23:27;0.00;;;0.00;;
81209;SDS011;70685;52.496;13.420;2023-10-31T10:25:54;0.00;;;0.00;;
81209;SDS011;70685;52.496;13.420;2023-10-31T10:28:22;0.10;;;0.10;;
81209;SDS011;70685;52.496;13.420;2023-10-31T10:30:50;0.10;;;0.10;;
81209;SDS011;70685;52.496;13.420;2023-10-31T10:33:17;0.10;;;0.10;;
81209;SDS011;70685;52.496;13.420;2023-10-31T10:35:45;0.00;;;0.00;;
81209;SDS011;70685;52.496;13.420;2023-10-31T10:38:15;0.10;;;0.10;;
81209;SDS011;70685;52.496;13.420;2023-10-31T10:40:44;0.15;;;0.15;;
81209;SDS011;70685;52.496;13.420;2023-10-31T10:45:53;0.13;;;0.13;;
81209;SDS011;70685;52.496;13.420;2023-10-31T10:48:21;0.10;;;0.10;;
81209;SDS011;70685;52.496;13.420;2023-10-31T10:50:50;0.10;;;0.10;;
81209;SDS011;70685;52.496;13.420;2023-10-31T10:53:25;0.25;;;0.25;;
81209;SDS011;70685;52.496;13.420;2023-10-31T10:55:55;0.10;;;0.10;;
81209;SDS011;70685;52.496;13.420;2023-10-31T11:01:33;0.10;;;0.10;;
81209;SDS011;70685;52.496;13.420;2023-10-31T11:04:00;1.88;;;0.17;;
81209;SDS011;70685;52.496;13.420;2023-10-31T11:06:27;0.30;;;0.30;;
81209;SDS011;70685;52.496;13.420;2023-10-31T11:08:56;0.20;;;0.20;;
81209;SDS011;70685;52.496;13.420;2023-10-31T11:11:23;0.35;;;0.35;;
81209;SDS011;70685;52.496;13.420;2023-10-31T11:13:50;0.40;;;0.40;;
81209;SDS011;70685;52.496;13.420;2023-10-31T11:16:37;0.15;;;0.15;;
81209;SDS011;70685;52.496;13.420;2023-10-31T11:19:08;0.20;;;0.20;;
81209;SDS011;70685;52.496;13.420;2023-10-31T11:21:35;0.10;;;0.10;;
81209;SDS011;70685;52.496;13.420;2023-10-31T11:24:01;0.30;;;0.30;;
81209;SDS011;70685;52.496;13.420;2023-10-31T11:26:29;0.10;;;0.10;;
81209;SDS011;70685;52.496;13.420;2023-10-31T11:29:05;0.30;;;0.30;;
81209;SDS011;70685;52.496;13.420;2023-10-31T11:31:31;0.28;;;0.28;;
81209;SDS011;70685;52.496;13.420;2023-10-31T11:34:01;0.10;;;0.10;;
81209;SDS011;70685;52.496;13.420;2023-10-31T11:36:29;0.30;;;0.30;;
81209;SDS011;70685;52.496;13.420;2023-10-31T11:39:14;0.10;;;0.10;;
81209;SDS011;70685;52.496;13.420;2023-10-31T11:41:45;0.10;;;0.10;;
81209;SDS011;70685;52.496;13.420;2023-10-31T11:44:26;0.52;;;0.52;;
81209;SDS011;70685;52.496;13.420;2023-10-31T11:46:53;0.03;;;0.03;;
81209;SDS011;70685;52.496;13.420;2023-10-31T11:52:16;0.10;;;0.10;;
81209;SDS011;70685;52.496;13.420;2023-10-31T11:54:43;0.15;;;0.15;;
81209;SDS011;70685;52.496;13.420;2023-10-31T11:57:09;0.03;;;0.03;;
81209;SDS011;70685;52.496;13.420;2023-10-31T11:59:35;0.20;;;0.20;;
81209;SDS011;70685;52.496;13.420;2023-10-31T12:02:13;0.10;;;0.10;;
81209;SDS011;70685;52.496;13.420;2023-10-31T12:04:40;0.10;;;0.10;;
81209;SDS011;70685;52.496;13.420;2023-10-31T12:07:05;0.10;;;0.10;;
81209;SDS011;70685;52.496;13.420;2023-10-31T12:09:31;0.10;;;0.10;;
81209;SDS011;70685;52.496;13.420;2023-10-31T12:11:59;0.20;;;0.20;;
81209;SDS011;70685;52.496;13.420;2023-10-31T12:14:25;0.10;;;0.10;;
81209;SDS011;70685;52.496;13.420;2023-10-31T12:16:51;0.00;;;0.00;;
81209;SDS011;70685;52.496;13.420;2023-10-31T12:19:17;0.10;;;0.10;;
81209;SDS011;70685;52.496;13.420;2023-10-31T12:21:46;0.15;;;0.15;;
81209;SDS011;70685;52.496;13.420;2023-10-31T12:24:16;0.10;;;0.10;;
81209;SDS011;70685;52.496;13.420;2023-10-31T12:26:44;0.20;;;0.20;;
81209;SDS011;70685;52.496;13.420;2023-10-31T12:29:19;0.20;;;0.20;;
81209;SDS011;70685;52.496;13.420;2023-10-31T12:31:50;0.20;;;0.20;;
81209;SDS011;70685;52.496;13.420;2023-10-31T12:34:24;0.30;;;0.10;;
81209;SDS011;70685;52.496;13.420;2023-10-31T12:36:50;0.10;;;0.10;;
81209;SDS011;70685;52.496;13.420;2023-10-31T12:39:18;0.00;;;0.00;;
81209;SDS011;70685;52.496;13.420;2023-10-31T12:41:50;0.10;;;0.10;;
81209;SDS011;70685;52.496;13.420;2023-10-31T12:44:28;0.00;;;0.00;;
81209;SDS011;70685;52.496;13.420;2023-10-31T12:46:54;0.08;;;0.08;;
81209;SDS011;70685;52.496;13.420;2023-10-31T12:49:25;0.20;;;0.20;;
81209;SDS011;70685;52.496;13.420;2023-10-31T12:52:03;0.00;;;0.00;;
81209;SDS011;70685;52.496;13.420;2023-10-31T12:54:33;0.10;;;0.10;;
81209;SDS011;70685;52.496;13.420;2023-10-31T12:57:09;0.05;;;0.00;;
81209;SDS011;70685;52.496;13.420;2023-10-31T12:59:35;0.10;;;0.10;;
81209;SDS011;70685;52.496;13.420;2023-10-31T13:02:05;0.15;;;0.10;;
81209;SDS011;70685;52.496;13.420;2023-10-31T13:04:31;0.10;;;0.10;;
81209;SDS011;70685;52.496;13.420;2023-10-31T13:07:01;0.43;;;0.30;;
81209;SDS011;70685;52.496;13.420;2023-10-31T13:09:29;0.00;;;0.00;;
81209;SDS011;70685;52.496;13.420;2023-10-31T13:12:00;0.03;;;0.03;;
81209;SDS011;70685;52.496;13.420;2023-10-31T13:14:27;0.10;;;0.10;;
81209;SDS011;70685;52.496;13.420;2023-10-31T13:16:53;0.00;;;0.00;;
81209;SDS011;70685;52.496;13.420;2023-10-31T13:19:21;0.05;;;0.05;;
81209;SDS011;70685;52.496;13.420;2023-10-31T13:21:47;0.00;;;0.00;;
81209;SDS011;70685;52.496;13.420;2023-10-31T13:24:16;0.00;;;0.00;;
81209;SDS011;70685;52.496;13.420;2023-10-31T13:26:42;0.38;;;0.30;;
81209;SDS011;70685;52.496;13.420;2023-10-31T13:29:16;0.30;;;0.10;;
81209;SDS011;70685;52.496;13.420;2023-10-31T13:31:42;0.10;;;0.10;;
81209;SDS011;70685;52.496;13.420;2023-10-31T13:34:10;0.10;;;0.10;;
81209;SDS011;70685;52.496;13.420;2023-10-31T13:36:38;0.10;;;0.10;;
81209;SDS011;70685;52.496;13.420;2023-10-31T13:39:04;0.00;;;0.00;;
81209;SDS011;70685;52.496;13.420;2023-10-31T13:41:29;0.00;;;0.00;;
81209;SDS011;70685;52.496;13.420;2023-10-31T13:43:55;0.25;;;0.25;;
81209;SDS011;70685;52.496;13.420;2023-10-31T13:46:23;0.00;;;0.00;;
81209;SDS011;70685;52.496;13.420;2023-10-31T13:48:51;0.10;;;0.10;;
81209;SDS011;70685;52.496;13.420;2023-10-31T13:51:17;0.00;;;0.00;;
81209;SDS011;70685;52.496;13.420;2023-10-31T13:53:45;0.10;;;0.10;;
81209;SDS011;70685;52.496;13.420;2023-10-31T13:56:15;0.00;;;0.00;;
81209;SDS011;70685;52.496;13.420;2023-10-31T13:58:42;0.10;;;0.10;;
81209;SDS011;70685;52.496;13.420;2023-10-31T14:01:08;0.00;;;0.00;;
81209;SDS011;70685;52.496;13.420;2023-10-31T14:03:33;0.00;;;0.00;;
81209;SDS011;70685;52.496;13.420;2023-10-31T14:05:59;0.00;;;0.00;;
81209;SDS011;70685;52.496;13.420;2023-10-31T14:08:29;0.00;;;0.00;;
81209;SDS011;70685;52.496;13.420;2023-10-31T14:10:55;0.10;;;0.10;;
81209;SDS011;70685;52.496;13.420;2023-10-31T14:13:22;0.00;;;0.00;;
81209;SDS011;70685;52.496;13.420;2023-10-31T14:15:48;0.10;;;0.10;;
81209;SDS011;70685;52.496;13.420;2023-10-31T14:18:14;0.22;;;0.13;;
81209;SDS011;70685;52.496;13.420;2023-10-31T14:20:40;0.00;;;0.00;;
81209;SDS011;70685;52.496;13.420;2023-10-31T14:23:06;0.00;;;0.00;;
81209;SDS011;70685;52.496;13.420;2023-10-31T14:25:32;0.08;;;0.00;;
81209;SDS011;70685;52.496;13.420;2023-10-31T14:28:00;0.25;;;0.25;;
81209;SDS011;70685;52.496;13.420;2023-10-31T14:30:29;0.00;;;0.00;;
81209;SDS011;70685;52.496;13.420;2023-10-31T14:32:54;0.00;;;0.00;;
81209;SDS011;70685;52.496;13.420;2023-10-31T14:35:23;0.00;;;0.00;;
81209;SDS011;70685;52.496;13.420;2023-10-31T14:37:48;0.00;;;0.00;;
81209;SDS011;70685;52.496;13.420;2023-10-31T14:40:16;0.08;;;0.08;;
81209;SDS011;70685;52.496;13.420;2023-10-31T14:42:44;0.00;;;0.00;;